Time;durP1;ratioP1;P1;durP2;ratioP2;P2;SDS_P1;SDS_P2;PMS_P1;PMS_P2;Temp;Humidity;BMP_temperature;BMP_pressure;BME280_temperature;BME280_humidity;BME280_pressure;Samples;Min_cycle;Max_cycle;Signal;HPM_P1;HPM_P2
2023/04/12 00:02:26;;;;;;;;;;;;;;;21.44;36.69;100551.84;5098669;28;19921;-70
2023/04/12 00:04:54;;;;;;;;;;;;;;;21.43;36.38;100536.66;5090452;28;19917;-70
2023/04/12 00:07:23;;;;;;;;;;;;;;;21.42;36.58;100534.16;5089221;28;19921;-70
2023/04/12 00:09:48;;;;;;;;;;;;;;;21.40;36.39;100533.50;5093207;28;19986;-70
2023/04/12 00:12:13;;;;;;;;;;;;;;;21.40;36.41;100519.97;5088674;28;20365;-71
2023/04/12 00:14:38;;;;;;;;;;;;;;;21.37;36.61;100515.81;5088560;28;19913;-70
2023/04/12 00:17:03;;;;;;;;;;;;;;;21.37;36.68;100501.47;5088658;28;19979;-70
2023/04/12 00:19:29;;;;;;;;;;;;;;;21.36;36.55;100500.59;5091437;28;19917;-70
2023/04/12 00:21:55;;;;;;;;;;;;;;;21.34;36.46;100494.56;5089109;28;19912;-70
2023/04/12 00:24:20;;;;;;;;;;;;;;;21.34;36.46;100494.56;5096806;28;20261;-71
2023/04/12 00:26:45;;;;;;;;;;;;;;;21.34;36.72;100485.63;5089327;28;19939;-71
2023/04/12 00:29:10;;;;;;;;;;;;;;;21.31;36.75;100472.44;5094575;28;19927;-70
2023/04/12 00:31:36;;;;;;;;;;;;;;;21.30;36.74;100468.06;5092998;28;19913;-71
2023/04/12 00:34:01;;;;;;;;;;;;;;;21.29;36.57;100469.13;5089091;28;19928;-70
2023/04/12 00:36:26;;;;;;;;;;;;;;;21.28;36.74;100464.72;5093227;28;20068;-70
2023/04/12 00:38:51;;;;;;;;;;;;;;;21.27;36.74;100468.47;5089410;28;20352;-70
2023/04/12 00:41:17;;;;;;;;;;;;;;;21.25;36.44;100449.75;5087928;28;19916;-71
2023/04/12 00:43:42;;;;;;;;;;;;;;;21.25;36.65;100440.78;5090035;28;19931;-70
2023/04/12 00:46:07;;;;;;;;;;;;;;;21.22;36.58;100440.13;5090812;28;19913;-70
2023/04/12 00:48:32;;;;;;;;;;;;;;;21.22;36.48;100436.59;5088811;28;19926;-70
2023/04/12 00:50:57;;;;;;;;;;;;;;;21.20;36.68;100427.88;5090241;28;19922;-70
2023/04/12 00:53:23;;;;;;;;;;;;;;;21.18;36.61;100425.34;5106388;28;19912;-71
2023/04/12 00:55:48;;;;;;;;;;;;;;;21.17;36.56;100415.56;5090742;28;19919;-70
2023/04/12 00:58:14;;;;;;;;;;;;;;;21.16;36.85;100416.59;5098617;28;19926;-71
2023/04/12 01:00:40;;;;;;;;;;;;;;;21.15;36.76;100403.25;5091663;28;19912;-70
2023/04/12 01:03:07;;;;;;;;;;;;;;;21.14;36.65;100396.19;5095716;28;19946;-70
2023/04/12 01:05:34;;;;;;;;;;;;;;;21.13;36.87;100389.13;5093602;28;19940;-70
2023/04/12 01:08:14;;;;;;;;;;;;;;;21.11;36.91;100374.94;5079685;28;19927;-70
2023/04/12 01:10:45;;;;;;;;;;;;;;;21.10;36.96;100374.13;5077452;28;19916;-70
2023/04/12 01:13:16;;;;;;;;;;;;;;;21.09;36.80;100371.63;5075481;28;19912;-70
2023/04/12 01:15:46;;;;;;;;;;;;;;;21.08;36.77;100375.34;5092860;28;19916;-70
2023/04/12 01:18:13;;;;;;;;;;;;;;;21.07;37.00;100377.22;5094007;28;20006;-70
2023/04/12 01:20:47;;;;;;;;;;;;;;;21.05;36.85;100375.75;5109098;28;19927;-70
2023/04/12 01:23:18;;;;;;;;;;;;;;;21.03;36.81;100365.13;5109975;28;19952;-70
2023/04/12 01:25:43;;;;;;;;;;;;;;;21.03;36.83;100350.78;5099264;28;19924;-70
2023/04/12 01:28:09;;;;;;;;;;;;;;;21.02;37.02;100341.00;5091828;28;19916;-71
2023/04/12 01:30:34;;;;;;;;;;;;;;;20.99;36.94;100334.13;5099040;28;19951;-70
2023/04/12 01:33:00;;;;;;;;;;;;;;;20.99;36.81;100314.38;5107349;28;19912;-70
2023/04/12 01:35:28;;;;;;;;;;;;;;;20.97;37.04;100314.56;5091119;28;19951;-69
2023/04/12 01:37:53;;;;;;;;;;;;;;;20.95;37.11;100300.41;5076652;28;19919;-70
2023/04/12 01:40:18;;;;;;;;;;;;;;;20.94;36.97;100304.13;5092099;28;19912;-70
2023/04/12 01:42:43;;;;;;;;;;;;;;;20.93;37.15;100311.41;5091505;28;20010;-70
2023/04/12 01:45:09;;;;;;;;;;;;;;;20.92;37.05;100296.22;5092493;28;19912;-70
2023/04/12 01:47:34;;;;;;;;;;;;;;;20.90;37.03;100284.78;5082791;28;19912;-70
2023/04/12 01:50:11;;;;;;;;;;;;;;;20.90;37.15;100282.09;5095356;28;19983;-70
2023/04/12 01:52:39;;;;;;;;;;;;;;;20.89;37.35;100283.09;5116218;28;20466;-72
2023/04/12 01:55:05;;;;;;;;;;;;;;;20.88;37.12;100278.75;5092825;28;19912;-71
2023/04/12 01:57:30;;;;;;;;;;;;;;;20.87;37.36;100273.53;5098092;28;19970;-70
2023/04/12 01:59:55;;;;;;;;;;;;;;;20.85;37.15;100265.63;5108396;28;19917;-72
2023/04/12 02:02:20;;;;;;;;;;;;;;;20.85;37.36;100253.97;5090787;28;19951;-70
2023/04/12 02:04:46;;;;;;;;;;;;;;;20.83;37.12;100250.66;5076383;28;19916;-71
2023/04/12 02:07:12;;;;;;;;;;;;;;;20.82;37.09;100241.72;5106270;28;19928;-70
2023/04/12 02:09:37;;;;;;;;;;;;;;;20.81;37.16;100231.91;5089976;28;19930;-70
2023/04/12 02:12:03;;;;;;;;;;;;;;;20.79;37.39;100220.47;5089891;28;19971;-70
2023/04/12 02:14:30;;;;;;;;;;;;;;;20.79;37.40;100222.34;5094521;28;19976;-70
2023/04/12 02:16:57;;;;;;;;;;;;;;;20.78;37.55;100212.59;5090907;28;19939;-70
2023/04/12 02:19:22;;;;;;;;;;;;;;;20.77;37.19;100214.44;5078416;28;20341;-69
2023/04/12 02:21:47;;;;;;;;;;;;;;;20.76;37.23;100211.94;5109513;28;20369;-70
2023/04/12 02:24:13;;;;;;;;;;;;;;;20.75;37.26;100211.09;5096425;28;19919;-70
2023/04/12 02:26:38;;;;;;;;;;;;;;;20.74;37.28;100198.63;5094549;28;19938;-70
2023/04/12 02:29:06;;;;;;;;;;;;;;;20.73;37.74;100186.16;5091224;28;19917;-70
2023/04/12 02:31:32;;;;;;;;;;;;;;;20.72;37.44;100179.06;5093325;28;19916;-71
2023/04/12 02:33:57;;;;;;;;;;;;;;;20.71;37.65;100172.84;5093540;28;19964;-70
2023/04/12 02:36:22;;;;;;;;;;;;;;;20.70;37.33;100167.66;5090054;28;19939;-70
2023/04/12 02:38:50;;;;;;;;;;;;;;;20.68;37.62;100165.13;5076144;28;19917;-71
2023/04/12 02:41:19;;;;;;;;;;;;;;;20.66;37.69;100142.91;5093121;28;19943;-70
2023/04/12 02:43:44;;;;;;;;;;;;;;;20.66;37.45;100128.56;5090801;28;19912;-71
2023/04/12 02:46:12;;;;;;;;;;;;;;;20.64;37.41;100119.81;5092162;28;19983;-71
2023/04/12 02:48:37;;;;;;;;;;;;;;;20.63;37.67;100101.94;5092902;28;19974;-70
2023/04/12 02:51:03;;;;;;;;;;;;;;;20.62;37.74;100098.41;5095000;28;19916;-71
2023/04/12 02:53:28;;;;;;;;;;;;;;;20.61;37.72;100114.81;5094696;28;19916;-70
2023/04/12 02:55:53;;;;;;;;;;;;;;;20.59;37.57;100100.66;5090297;28;19952;-70
2023/04/12 02:58:18;;;;;;;;;;;;;;;20.59;37.46;100084.47;5077392;28;19912;-71
2023/04/12 03:00:44;;;;;;;;;;;;;;;20.58;37.50;100082.81;5090415;28;19931;-70
2023/04/12 03:03:09;;;;;;;;;;;;;;;20.57;37.43;100079.28;5090633;28;19916;-70
2023/04/12 03:05:35;;;;;;;;;;;;;;;20.56;37.52;100079.44;5090936;28;19920;-70
2023/04/12 03:08:00;;;;;;;;;;;;;;;20.55;37.78;100073.22;5092273;28;19924;-71
2023/04/12 03:10:25;;;;;;;;;;;;;;;20.54;37.78;100059.94;5090958;28;19923;-71
2023/04/12 03:12:50;;;;;;;;;;;;;;;20.53;37.61;100047.47;5090182;28;19954;-70
2023/04/12 03:15:16;;;;;;;;;;;;;;;20.52;37.57;100043.94;5093270;28;19912;-72
2023/04/12 03:17:41;;;;;;;;;;;;;;;20.51;37.51;100039.56;5091435;28;19916;-71
2023/04/12 03:20:10;;;;;;;;;;;;;;;20.50;37.85;100031.66;5096834;28;19962;-71
2023/04/12 03:22:36;;;;;;;;;;;;;;;20.50;37.62;100031.66;5090816;28;19920;-70
2023/04/12 03:25:02;;;;;;;;;;;;;;;20.48;37.65;100034.56;5091859;28;19915;-70
2023/04/12 03:27:27;;;;;;;;;;;;;;;20.47;37.96;100014.81;5091433;28;19912;-70
2023/04/12 03:29:53;;;;;;;;;;;;;;;20.46;37.64;100015.00;5090073;28;20293;-70
2023/04/12 03:32:19;;;;;;;;;;;;;;;20.45;37.58;100000.66;5091421;28;19916;-70
2023/04/12 03:34:45;;;;;;;;;;;;;;;20.44;37.67;99985.50;5091224;28;19913;-70
2023/04/12 03:37:10;;;;;;;;;;;;;;;20.43;37.89;99991.94;5088388;28;19912;-71
2023/04/12 03:39:35;;;;;;;;;;;;;;;20.42;37.68;99997.53;5091663;28;19926;-73
2023/04/12 03:42:00;;;;;;;;;;;;;;;20.42;37.64;99995.66;5094247;28;19916;-72
2023/04/12 03:44:25;;;;;;;;;;;;;;;20.41;37.89;99988.59;5090245;28;19944;-70
2023/04/12 03:46:51;;;;;;;;;;;;;;;20.41;37.85;99979.66;5096276;28;19979;-71
2023/04/12 03:49:16;;;;;;;;;;;;;;;20.41;37.60;99982.38;5090152;28;19916;-70
2023/04/12 03:51:42;;;;;;;;;;;;;;;20.38;37.66;99958.47;5093384;28;19920;-67
2023/04/12 03:54:11;;;;;;;;;;;;;;;20.38;37.88;99963.84;5093800;28;19912;-70
2023/04/12 03:56:37;;;;;;;;;;;;;;;20.36;37.73;99960.53;5089704;28;20327;-70
2023/04/12 03:59:02;;;;;;;;;;;;;;;20.35;37.93;99959.72;5090336;28;19912;-70
2023/04/12 04:01:27;;;;;;;;;;;;;;;20.34;37.62;99958.03;5089876;28;19912;-70
2023/04/12 04:03:53;;;;;;;;;;;;;;;20.33;37.78;99956.38;5089175;28;19934;-70
2023/04/12 04:06:18;;;;;;;;;;;;;;;20.32;38.01;99952.00;5088596;28;19923;-71
2023/04/12 04:08:43;;;;;;;;;;;;;;;20.31;37.81;99955.75;5093477;28;19916;-70
2023/04/12 04:11:09;;;;;;;;;;;;;;;20.31;37.81;99942.25;5087766;28;19919;-72
2023/04/12 04:13:35;;;;;;;;;;;;;;;20.30;37.87;99937.03;5097250;28;19965;-71
2023/04/12 04:16:08;;;;;;;;;;;;;;;20.29;38.10;99938.91;5092818;28;19916;-70
2023/04/12 04:18:34;;;;;;;;;;;;;;;20.28;38.02;99928.31;5098982;28;19917;-69
2023/04/12 04:20:59;;;;;;;;;;;;;;;20.28;37.59;99937.25;5096697;28;19916;-70
2023/04/12 04:23:26;;;;;;;;;;;;;;;20.26;37.90;99920.41;5092110;28;19922;-71
2023/04/12 04:25:52;;;;;;;;;;;;;;;20.25;38.09;99929.53;5089935;28;19953;-68
2023/04/12 04:28:17;;;;;;;;;;;;;;;20.24;38.40;99914.38;5094500;28;19924;-69
2023/04/12 04:30:44;;;;;;;;;;;;;;;20.23;38.22;99910.84;5100627;28;19919;-69
2023/04/12 04:33:10;;;;;;;;;;;;;;;20.23;38.59;99904.63;5095272;28;19916;-70
2023/04/12 04:35:37;;;;;;;;;;;;;;;20.23;38.87;99901.94;5091387;28;19952;-70
2023/04/12 04:38:02;;;;;;;;;;;;;;;20.22;38.67;99893.00;5104029;28;19942;-72
2023/04/12 04:40:28;;;;;;;;;;;;;;;20.22;38.81;99892.19;5097775;28;19917;-70
2023/04/12 04:42:53;;;;;;;;;;;;;;;20.22;39.16;99876.81;5099642;28;19919;-70
2023/04/12 04:45:25;;;;;;;;;;;;;;;20.22;39.06;99876.81;5098688;28;19916;-69
2023/04/12 04:47:52;;;;;;;;;;;;;;;20.21;38.99;99869.72;5098756;28;19913;-70
2023/04/12 04:50:17;;;;;;;;;;;;;;;20.21;39.07;99866.19;5099271;28;19942;-69
2023/04/12 04:52:43;;;;;;;;;;;;;;;20.20;39.11;99867.25;5100936;28;19916;-72
2023/04/12 04:55:09;;;;;;;;;;;;;;;20.20;39.25;99861.84;5098469;28;19912;-72
2023/04/12 04:57:34;;;;;;;;;;;;;;;20.20;39.30;99854.56;5097911;28;19913;-71
2023/04/12 04:59:59;;;;;;;;;;;;;;;20.20;39.64;99857.28;5098594;28;19920;-68
2023/04/12 05:02:25;;;;;;;;;;;;;;;20.20;39.62;99853.75;5097444;28;19917;-68
2023/04/12 05:04:50;;;;;;;;;;;;;;;20.19;39.76;99842.13;5095274;28;19912;-69
2023/04/12 05:07:15;;;;;;;;;;;;;;;20.18;39.37;99843.16;5097100;28;20421;-68
2023/04/12 05:09:40;;;;;;;;;;;;;;;20.18;39.77;99839.63;5094625;28;20528;-69
2023/04/12 05:12:05;;;;;;;;;;;;;;;20.17;39.84;99844.19;5095368;28;19912;-69
2023/04/12 05:14:31;;;;;;;;;;;;;;;20.17;39.70;99841.47;5101292;28;19920;-69
2023/04/12 05:16:56;;;;;;;;;;;;;;;20.16;39.61;99837.13;5096684;28;19912;-68
2023/04/12 05:19:22;;;;;;;;;;;;;;;20.17;39.95;99832.56;5102443;28;19921;-69
2023/04/12 05:21:47;;;;;;;;;;;;;;;20.15;39.82;99840.88;5097075;28;19970;-69
2023/04/12 05:24:12;;;;;;;;;;;;;;;20.14;39.98;99836.50;5098726;28;19924;-69
2023/04/12 05:26:37;;;;;;;;;;;;;;;20.14;39.78;99822.19;5078615;28;19917;-70
2023/04/12 05:29:02;;;;;;;;;;;;;;;20.14;40.03;99822.19;5098687;28;19947;-68
2023/04/12 05:31:27;;;;;;;;;;;;;;;20.14;39.86;99824.88;5098673;28;19943;-68
2023/04/12 05:33:53;;;;;;;;;;;;;;;20.12;40.06;99819.66;5098032;28;20289;-69
2023/04/12 05:36:18;;;;;;;;;;;;;;;20.12;39.81;99814.28;5097843;28;19912;-69
2023/04/12 05:38:44;;;;;;;;;;;;;;;20.11;39.82;99815.31;5095926;28;19912;-69
2023/04/12 05:41:09;;;;;;;;;;;;;;;20.10;40.16;99808.25;5095118;28;19916;-69
2023/04/12 05:43:36;;;;;;;;;;;;;;;20.10;39.75;99804.72;5098742;28;19912;-68
2023/04/12 05:46:01;;;;;;;;;;;;;;;20.09;40.18;99806.59;5102192;28;19916;-68
2023/04/12 05:48:26;;;;;;;;;;;;;;;20.09;40.18;99821.94;5102926;28;19938;-68
2023/04/12 05:50:52;;;;;;;;;;;;;;;20.08;39.82;99813.00;5102091;28;19911;-68
2023/04/12 05:53:17;;;;;;;;;;;;;;;20.07;39.86;99805.13;5102203;28;19917;-68
2023/04/12 05:55:43;;;;;;;;;;;;;;;20.07;40.01;99799.72;5101600;28;19916;-69
2023/04/12 05:58:09;;;;;;;;;;;;;;;20.07;39.89;99805.97;5101681;28;19916;-68
2023/04/12 06:00:34;;;;;;;;;;;;;;;20.05;40.13;99810.75;5100427;28;20281;-68
2023/04/12 06:02:59;;;;;;;;;;;;;;;20.05;40.01;99796.38;5101720;28;19967;-68
2023/04/12 06:05:25;;;;;;;;;;;;;;;20.04;40.13;99806.34;5081845;28;19919;-68
2023/04/12 06:07:50;;;;;;;;;;;;;;;20.03;40.17;99802.00;5102671;28;19973;-68
2023/04/12 06:10:15;;;;;;;;;;;;;;;20.03;40.25;99803.88;5099990;28;19924;-67
2023/04/12 06:12:41;;;;;;;;;;;;;;;20.03;40.10;99804.69;5102749;28;19912;-68
2023/04/12 06:15:06;;;;;;;;;;;;;;;20.02;39.96;99797.66;5103324;28;19970;-68
2023/04/12 06:17:31;;;;;;;;;;;;;;;20.00;40.24;99794.31;5091316;28;19926;-68
2023/04/12 06:19:56;;;;;;;;;;;;;;;19.99;40.11;99816.94;5091083;28;19913;-67
2023/04/12 06:22:22;;;;;;;;;;;;;;;19.98;40.10;99813.41;5094698;28;19939;-68
2023/04/12 06:24:47;;;;;;;;;;;;;;;19.98;40.45;99810.72;5101384;28;19963;-67
2023/04/12 06:27:12;;;;;;;;;;;;;;;19.98;40.10;99796.38;5082115;28;20003;-69
2023/04/12 06:29:37;;;;;;;;;;;;;;;19.97;40.11;99783.94;5102495;28;20443;-68
2023/04/12 06:32:02;;;;;;;;;;;;;;;19.96;40.27;99780.41;5100107;28;20552;-68
2023/04/12 06:34:28;;;;;;;;;;;;;;;19.96;40.34;99790.34;5102504;28;19916;-67
2023/04/12 06:36:53;;;;;;;;;;;;;;;19.95;40.25;99783.28;5099833;28;19913;-69
2023/04/12 06:39:18;;;;;;;;;;;;;;;19.95;40.45;99780.59;5099654;28;19995;-70
2023/04/12 06:41:46;;;;;;;;;;;;;;;19.94;40.31;99777.06;5104032;28;19945;-72
2023/04/12 06:44:11;;;;;;;;;;;;;;;19.94;40.16;99770.84;5095554;28;19984;-71
2023/04/12 06:46:36;;;;;;;;;;;;;;;19.92;40.15;99765.66;5100866;28;19934;-71
2023/04/12 06:49:01;;;;;;;;;;;;;;;19.93;40.00;99763.78;5100178;28;19920;-71
2023/04/12 06:51:27;;;;;;;;;;;;;;;19.92;40.13;99760.28;5078295;28;19944;-70
2023/04/12 06:53:52;;;;;;;;;;;;;;;19.91;40.30;99752.34;5093045;28;19995;-72
2023/04/12 06:56:17;;;;;;;;;;;;;;;19.89;39.97;99757.97;5090654;28;19931;-69
2023/04/12 06:58:43;;;;;;;;;;;;;;;19.89;39.97;99752.56;5092732;28;19916;-72
2023/04/12 07:01:13;;;;;;;;;;;;;;;19.88;39.97;99734.72;5089419;28;19947;-71
2023/04/12 07:03:38;;;;;;;;;;;;;;;19.87;40.05;99745.72;5093575;28;19915;-71
2023/04/12 07:06:04;;;;;;;;;;;;;;;19.86;40.16;99742.19;5092006;28;19920;-70
2023/04/12 07:08:29;;;;;;;;;;;;;;;19.86;39.96;99752.97;5099786;28;19923;-71
2023/04/12 07:10:55;;;;;;;;;;;;;;;19.85;40.12;99747.78;5094752;28;19916;-71
2023/04/12 07:13:21;;;;;;;;;;;;;;;19.84;40.24;99751.53;5087729;28;20696;-69
2023/04/12 07:15:47;;;;;;;;;;;;;;;19.84;40.17;99751.53;5097706;28;19917;-72
2023/04/12 07:18:12;;;;;;;;;;;;;;;19.82;40.28;99745.50;5089808;28;19917;-70
2023/04/12 07:20:37;;;;;;;;;;;;;;;19.82;40.25;99737.41;5092416;28;19947;-69
2023/04/12 07:23:02;;;;;;;;;;;;;;;19.82;40.17;99740.09;5095930;28;19927;-71
2023/04/12 07:25:27;;;;;;;;;;;;;;;19.81;40.08;99746.53;5090495;28;19923;-70
2023/04/12 07:27:53;;;;;;;;;;;;;;;19.81;40.38;99749.22;5094294;28;19916;-71
2023/04/12 07:30:18;;;;;;;;;;;;;;;19.79;39.94;99748.59;5097882;28;20459;-71
2023/04/12 07:32:43;;;;;;;;;;;;;;;19.79;40.21;99743.19;5095695;28;19926;-71
2023/04/12 07:35:08;;;;;;;;;;;;;;;19.78;40.40;99739.66;5092401;28;19920;-70
2023/04/12 07:37:34;;;;;;;;;;;;;;;19.77;40.34;99739.88;5097459;28;19920;-71
2023/04/12 07:39:59;;;;;;;;;;;;;;;19.78;40.53;99736.13;5088847;28;19916;-70
2023/04/12 07:42:24;;;;;;;;;;;;;;;19.76;40.37;99736.34;5093834;28;19927;-71
2023/04/12 07:44:50;;;;;;;;;;;;;;;19.77;40.46;99739.88;5091474;28;20019;-70
2023/04/12 07:47:15;;;;;;;;;;;;;;;19.75;40.46;99739.22;5093402;28;19920;-69
2023/04/12 07:49:40;;;;;;;;;;;;;;;19.75;40.35;99745.47;5088504;28;19938;-68
2023/04/12 07:52:06;;;;;;;;;;;;;;;19.74;40.47;99735.72;5097022;28;19994;-71
2023/04/12 07:54:31;;;;;;;;;;;;;;;19.74;40.57;99738.41;5091572;28;19916;-69
2023/04/12 07:56:57;;;;;;;;;;;;;;;19.72;40.32;99725.13;5100296;28;19955;-71
2023/04/12 07:59:22;;;;;;;;;;;;;;;19.72;40.39;99719.75;5092668;28;20363;-70
2023/04/12 08:01:47;;;;;;;;;;;;;;;19.72;40.37;99729.69;5094956;28;19916;-71
2023/04/12 08:04:12;;;;;;;;;;;;;;;19.71;40.35;99736.97;5098213;28;19916;-71
2023/04/12 08:06:38;;;;;;;;;;;;;;;19.70;40.39;99732.59;5094884;28;19927;-71
2023/04/12 08:09:03;;;;;;;;;;;;;;;19.71;40.58;99730.75;5096775;28;19960;-70
2023/04/12 08:11:28;;;;;;;;;;;;;;;19.70;40.65;99735.28;5094672;28;20053;-71
2023/04/12 08:13:53;;;;;;;;;;;;;;;19.71;40.56;99738.84;5093125;28;20497;-71
2023/04/12 08:16:18;;;;;;;;;;;;;;;19.71;40.68;99736.13;5088234;28;19927;-70
2023/04/12 08:18:43;;;;;;;;;;;;;;;19.71;40.70;99736.97;5090800;28;19916;-71
2023/04/12 08:21:09;;;;;;;;;;;;;;;19.71;40.65;99744.22;5093635;28;20557;-68
2023/04/12 08:23:34;;;;;;;;;;;;;;;19.70;40.74;99737.97;5091441;28;20013;-72
2023/04/12 08:26:02;;;;;;;;;;;;;;;19.71;40.62;99739.66;5095382;28;19912;-71
2023/04/12 08:28:27;;;;;;;;;;;;;;;19.70;40.81;99732.59;5094933;28;19924;-72
2023/04/12 08:30:53;;;;;;;;;;;;;;;19.71;40.74;99731.56;5095276;28;19926;-72
2023/04/12 08:33:18;;;;;;;;;;;;;;;19.71;40.69;99733.44;5096051;28;19985;-69
2023/04/12 08:35:43;;;;;;;;;;;;;;;19.23;40.85;99652.53;5108654;28;19922;-71
2023/04/12 08:38:08;;;;;;;;;;;;;;;19.71;40.74;99731.56;5091042;28;19916;-70
2023/04/12 08:40:34;;;;;;;;;;;;;;;19.72;40.97;99735.09;5094681;28;19927;-71
2023/04/12 08:43:04;;;;;;;;;;;;;;;19.72;40.93;99737.78;5080120;28;19928;-71
2023/04/12 08:45:30;;;;;;;;;;;;;;;19.73;40.77;99732.19;5069273;28;19912;-72
2023/04/12 08:47:55;;;;;;;;;;;;;;;19.75;40.75;99729.28;5106680;28;19967;-72
2023/04/12 08:50:20;;;;;;;;;;;;;;;19.77;41.08;99731.78;5074881;28;19920;-71
2023/04/12 08:52:45;;;;;;;;;;;;;;;19.78;40.98;99730.75;5101068;28;19931;-71
2023/04/12 08:55:11;;;;;;;;;;;;;;;19.79;40.74;99744.03;5107954;28;20469;-71
2023/04/12 08:57:39;;;;;;;;;;;;;;;19.81;40.77;99738.44;5095470;28;19927;-71
2023/04/12 09:00:06;;;;;;;;;;;;;;;19.82;40.91;99734.69;5088667;28;19997;-71
2023/04/12 09:02:31;;;;;;;;;;;;;;;19.84;41.01;99738.88;5088396;28;19952;-72
2023/04/12 09:04:57;;;;;;;;;;;;;;;19.85;40.77;99727.03;5094016;28;19920;-71
2023/04/12 09:07:22;;;;;;;;;;;;;;;19.86;40.86;99730.56;5090082;28;19925;-72
2023/04/12 09:09:48;;;;;;;;;;;;;;;19.87;40.76;99729.53;5086981;28;19928;-72
2023/04/12 09:12:14;;;;;;;;;;;;;;;19.88;40.70;99728.47;5091197;28;19927;-70
2023/04/12 09:14:39;;;;;;;;;;;;;;;19.89;40.68;99722.91;5108145;28;19916;-71
2023/04/12 09:17:04;;;;;;;;;;;;;;;19.89;40.85;99720.22;5089598;28;19983;-72
2023/04/12 09:19:30;;;;;;;;;;;;;;;19.91;40.74;99717.28;5094247;28;19920;-71
2023/04/12 09:21:56;;;;;;;;;;;;;;;19.93;40.73;99720.63;5095901;28;20019;-73
2023/04/12 09:24:24;;;;;;;;;;;;;;;19.94;40.92;99719.59;5092629;28;20301;-74
2023/04/12 09:27:00;;;;;;;;;;;;;;;19.96;40.70;99721.06;5096230;28;19972;-72
2023/04/12 09:29:25;;;;;;;;;;;;;;;19.98;40.74;99720.84;5100090;28;19987;-72
2023/04/12 09:32:01;;;;;;;;;;;;;;;20.00;40.50;99713.38;5098752;28;19912;-72
2023/04/12 09:34:26;;;;;;;;;;;;;;;20.01;40.37;99708.78;5094874;28;19912;-72
2023/04/12 09:36:51;;;;;;;;;;;;;;;20.05;40.35;99704.66;5096041;28;19969;-72
2023/04/12 09:39:17;;;;;;;;;;;;;;;20.07;40.20;99695.34;5094637;28;19923;-70
2023/04/12 09:41:42;;;;;;;;;;;;;;;20.11;40.24;99688.47;5093874;28;19995;-71
2023/04/12 09:44:07;;;;;;;;;;;;;;;20.14;40.25;99671.06;5109652;27;19936;-72
2023/04/12 09:46:32;;;;;;;;;;;;;;;20.17;40.40;99676.84;5091361;28;19924;-72
2023/04/12 09:48:58;;;;;;;;;;;;;;;20.20;40.04;99683.72;5093894;28;19923;-72
2023/04/12 09:51:25;;;;;;;;;;;;;;;20.22;40.18;99685.19;5094810;28;20492;-72
2023/04/12 09:53:50;;;;;;;;;;;;;;;20.26;40.21;99685.56;5097758;28;19913;-72
2023/04/12 09:56:16;;;;;;;;;;;;;;;20.30;39.94;99688.69;5107793;27;19919;-71
2023/04/12 09:58:41;;;;;;;;;;;;;;;20.30;40.07;99692.22;5114418;27;20139;-72
2023/04/12 10:01:08;;;;;;;;;;;;;;;20.35;40.04;99689.75;5079729;28;19977;-70
2023/04/12 10:03:33;;;;;;;;;;;;;;;20.38;39.97;99688.50;5078839;28;19917;-73
2023/04/12 10:05:58;;;;;;;;;;;;;;;20.41;40.22;99688.09;5077869;28;19962;-71
2023/04/12 10:08:24;;;;;;;;;;;;;;;20.45;40.35;99684.75;5091559;28;19944;-70
2023/04/12 10:10:50;;;;;;;;;;;;;;;20.50;40.32;99669.84;5093018;28;19919;-71
2023/04/12 10:13:15;;;;;;;;;;;;;;;20.54;40.17;99680.00;5075566;28;19912;-72
2023/04/12 10:15:40;;;;;;;;;;;;;;;20.58;40.08;99678.53;5109584;27;19912;-73
2023/04/12 10:18:06;;;;;;;;;;;;;;;20.61;40.30;99672.75;5100198;28;19920;-72
2023/04/12 10:20:31;;;;;;;;;;;;;;;20.65;40.01;99673.16;5095161;28;19924;-71
2023/04/12 10:22:58;;;;;;;;;;;;;;;20.69;40.05;99672.53;5095103;28;19912;-70
2023/04/12 10:25:24;;;;;;;;;;;;;;;20.74;40.11;99671.06;5114727;28;19916;-72
2023/04/12 10:27:49;;;;;;;;;;;;;;;20.76;40.39;99679.78;5098897;28;19917;-69
2023/04/12 10:30:22;;;;;;;;;;;;;;;20.79;40.03;99677.47;5111969;27;19927;-70
2023/04/12 10:33:07;;;;;;;;;;;;;;;20.81;40.21;99667.28;5100318;28;19971;-70
2023/04/12 10:35:47;;;;;;;;;;;;;;;20.86;40.00;99666.69;5096407;28;19932;-70
2023/04/12 10:38:13;;;;;;;;;;;;;;;20.87;40.18;99666.44;5099019;28;19920;-71
2023/04/12 10:40:38;;;;;;;;;;;;;;;20.90;39.92;99670.63;5098053;28;19997;-71
2023/04/12 10:43:21;;;;;;;;;;;;;;;20.93;40.17;99679.09;5104981;28;19917;-70
2023/04/12 10:45:48;;;;;;;;;;;;;;;20.94;40.24;99677.22;5098595;28;19916;-70
2023/04/12 10:48:28;;;;;;;;;;;;;;;20.96;40.04;99675.16;5097814;28;19923;-70
2023/04/12 10:51:13;;;;;;;;;;;;;;;20.97;40.17;99674.94;5100066;28;19981;-71
2023/04/12 10:53:38;;;;;;;;;;;;;;;20.99;40.16;99666.63;5099686;28;19923;-70
2023/04/12 10:56:23;;;;;;;;;;;;;;;21.01;39.98;99663.72;5095301;28;19920;-71
2023/04/12 10:58:49;;;;;;;;;;;;;;;21.00;40.11;99659.34;5101589;28;19916;-70
2023/04/12 11:01:17;;;;;;;;;;;;;;;21.00;40.21;99659.34;5099074;28;20242;-69
2023/04/12 11:04:01;;;;;;;;;;;;;;;21.01;40.21;99661.00;5101637;28;19972;-70
2023/04/12 11:06:45;;;;;;;;;;;;;;;21.06;40.05;99661.19;5098994;28;19920;-70
2023/04/12 11:09:20;;;;;;;;;;;;;;;21.06;40.54;99656.63;5099481;28;20471;-70
2023/04/12 11:11:46;;;;;;;;;;;;;;;21.09;40.45;99660.78;5097912;28;19912;-70
2023/04/12 11:14:12;;;;;;;;;;;;;;;21.10;40.40;99649.75;5097424;28;19940;-69
2023/04/12 11:16:56;;;;;;;;;;;;;;;21.13;40.09;99651.19;5093410;28;19920;-72
2023/04/12 11:19:21;;;;;;;;;;;;;;;21.16;40.17;99656.19;5089678;28;20478;-71
2023/04/12 11:21:46;;;;;;;;;;;;;;;21.19;39.95;99651.16;5097334;28;19916;-72
2023/04/12 11:24:12;;;;;;;;;;;;;;;21.22;39.98;99653.44;5090005;28;19926;-71
2023/04/12 11:26:37;;;;;;;;;;;;;;;21.25;39.84;99662.19;5112597;28;19916;-70
2023/04/12 11:29:06;;;;;;;;;;;;;;;21.27;39.99;99650.09;5106690;28;19931;-72
2023/04/12 11:31:31;;;;;;;;;;;;;;;21.30;39.68;99656.94;5094191;28;19912;-72
2023/04/12 11:33:57;;;;;;;;;;;;;;;21.33;39.65;99651.16;5092045;28;19912;-71
2023/04/12 11:36:23;;;;;;;;;;;;;;;21.35;39.90;99654.47;5109631;27;19920;-71
2023/04/12 11:38:49;;;;;;;;;;;;;;;21.36;39.88;99661.53;5089207;28;19959;-72
2023/04/12 11:41:15;;;;;;;;;;;;;;;21.38;39.81;99660.28;5075169;28;19934;-69
2023/04/12 11:43:41;;;;;;;;;;;;;;;21.41;39.64;99656.31;5092542;28;19923;-73
2023/04/12 11:46:06;;;;;;;;;;;;;;;21.43;39.73;99656.91;5089275;28;19912;-73
2023/04/12 11:48:32;;;;;;;;;;;;;;;21.44;39.61;99651.28;5079096;28;19931;-73
2023/04/12 11:50:57;;;;;;;;;;;;;;;21.46;39.38;99654.63;5096083;28;19938;-73
2023/04/12 11:53:28;;;;;;;;;;;;;;;21.48;39.43;99654.38;5095969;28;19920;-72
2023/04/12 11:55:54;;;;;;;;;;;;;;;21.48;39.41;99650.88;5090257;28;19916;-72
2023/04/12 11:58:22;;;;;;;;;;;;;;;21.49;39.63;99649.81;5095768;28;20011;-73
2023/04/12 12:00:48;;;;;;;;;;;;;;;21.50;39.26;99652.31;5094595;28;19920;-72
2023/04/12 12:03:13;;;;;;;;;;;;;;;21.51;39.25;99655.84;5087899;28;19986;-73
2023/04/12 12:05:38;;;;;;;;;;;;;;;21.50;39.46;99655.03;5105162;28;20459;-72
2023/04/12 12:08:06;;;;;;;;;;;;;;;21.51;39.44;99659.38;5091902;28;19996;-72
2023/04/12 12:10:32;;;;;;;;;;;;;;;21.52;39.10;99657.50;5091759;28;19935;-73
2023/04/12 12:13:13;;;;;;;;;;;;;;;21.53;39.14;99659.16;5089579;27;1913467;-74
2023/04/12 12:15:39;;;;;;;;;;;;;;;21.53;39.39;99667.25;5148943;27;19920;-74
2023/04/12 12:18:07;;;;;;;;;;;;;;;21.52;39.39;99671.03;5148404;27;20708;-72
2023/04/12 12:20:37;;;;;;;;;;;;;;;21.53;39.21;99670.78;5139564;27;19915;-73
2023/04/12 12:23:03;;;;;;;;;;;;;;;21.52;39.29;99669.13;5151622;27;19923;-73
2023/04/12 12:25:28;;;;;;;;;;;;;;;21.52;39.46;99671.84;5146588;27;19916;-73
2023/04/12 12:27:55;;;;;;;;;;;;;;;21.51;39.27;99667.50;5148116;27;19937;-73
2023/04/12 12:30:21;;;;;;;;;;;;;;;21.51;39.25;99670.19;5145386;27;19919;-73
2023/04/12 12:32:48;;;;;;;;;;;;;;;21.50;39.33;99695.59;5147542;27;19926;-71
2023/04/12 12:35:14;;;;;;;;;;;;;;;21.51;39.47;99699.13;5148658;27;19954;-70
2023/04/12 12:37:52;;;;;;;;;;;;;;;21.51;39.33;99697.25;5147631;27;19960;-71
2023/04/12 12:40:20;;;;;;;;;;;;;;;21.49;39.46;99702.00;5151899;27;19922;-72